x

Destruction Island, Wa (desw1) Weather Station

6:00 - Sun 24th Jul 2016 All times are PDT. -7 hours from GMT.

  • Wind
    24mph, 26mph gusts
  • Luft Temp 60°f
  • Sea Pressure 1018.5mb
  • Destruction Island, Wa
  • Destruction Island, Wa

More Historic Weather Station data

Upgrade to MSW Pro to gain access to the past 30 days of data for over 8000 Wavebouys and Weather Stations around the globe.

Join Pro

Comparision Forecast

View Surf forecast
   
So 07/24 6:00 24 26 mph 1018.5mb 60f
5:00 26 29 mph 1019mb 61f
4:00 25 28 mph 1019.3mb 61f
3:00 26 30 mph 1019.7mb 61f
2:00 26 29 mph 1019.8mb 61f
1:00 23 25 mph 1020.2mb 60f
12:00 21 23 mph 1020.6mb 60f
11:00 18 20 mph 1020.9mb 59f
10:00 15 17 mph 1021.1mb 59f
9:00 9 10 mph 1021.6mb 58f
8:00 7 8 mph 1021.2mb 57f
7:00 6 7 mph 1021.3mb 56f
6:00 5 6 mph 1021.1mb 56f
5:00 7 8 mph 1021.1mb 57f
4:00 11
mph
1021.5mb 58f
3:00 13 14 mph 1022.2mb 58f
2:00 16
mph
1022.3mb 58f
1:00 13 14 mph 1022.7mb 58f
12:00 14
mph
1023.2mb 58f
Sa 07/23 11:00 17
mph
1023.7mb 59f
10:00 18 20 mph 1023.9mb 60f
9:00 17 18 mph 1023.9mb 60f
8:00 20 21 mph 1023.9mb 61f
7:00 20 21 mph 1024.1mb 61f
6:00 20 21 mph 1024.5mb 62f
5:00 18 21 mph 1025mb 62f
4:00 16 18 mph 1025.6mb 62f
3:00 15 16 mph 1026mb 62f
2:00 13 14 mph 1026mb 62f
1:00 5 9 mph 1025.9mb 63f
12:00 9 10 mph 1026mb 62f
11:00 7
mph
1026.1mb 61f
10:00 9 10 mph 1026mb 58f
9:00 2 3 mph 1025.8mb 59f
8:00 5 7 mph 1025.4mb 59f
7:00 9
mph
1025.3mb 58f
6:00 8 9 mph 1025.3mb 58f
5:00 9 10 mph 1025.2mb 58f
4:00 9 10 mph 1025.4mb 59f
3:00 10 11 mph 1025.5mb 59f
2:00 9 10 mph 1025.7mb 59f
1:00 8 9 mph 1026mb 60f
12:00 9 10 mph 1026.3mb 60f
Fr 07/22 11:00 6 8 mph 1026.3mb 60f
10:00 6 7 mph 1026.3mb 60f
9:00 3
mph
1026mb 60f
8:00 2 3 mph 1026.2mb 60f
7:00 8 9 mph 1026.1mb 61f
6:00 6 7 mph 1026.2mb 62f
5:00 6 7 mph 1026.2mb 62f
4:00 5 7 mph 1026.4mb 63f
3:00 2 3 mph 1026.3mb 63f
2:00 2 3 mph 1026.2mb 60f
1:00 6
mph
1026.1mb 61f
12:00 10 13 mph 1025.7mb 60f
11:00 7 9 mph 1025mb 60f
10:00 9 10 mph 1024.6mb 59f
9:00 14 15 mph 1024.2mb 59f
8:00 10 11 mph 1023.8mb 61f
7:00 3 5 mph 1023.3mb 60f
6:00  -  mph 1022.8mb 60f
5:00 7
mph
1022.3mb 60f
4:00 8 9 mph 1022.1mb 60f
3:00 9
mph
1022mb 60f
2:00 9 10 mph 1021.7mb 60f
1:00 13 15 mph 1021.5mb 60f
12:00 15 17 mph 1021.3mb 61f
Do 07/21 11:00 6 7 mph 1021.1mb 61f
10:00 3 5 mph 1021.1mb 60f
9:00 2
mph
1020mb 59f
8:00 5
mph
1019.7mb 59f
7:00 6 9 mph 1019.4mb 59f
6:00 13 15 mph 1019mb 59f
5:00 18 20 mph 1018.9mb 60f
4:00 15 16 mph 1018.8mb 58f
3:00 16 18 mph 1018.8mb 59f
2:00 16 17 mph 1018.9mb 59f
1:00 16 17 mph 1018.6mb 60f
12:00 15 16 mph 1018.5mb 60f
11:00 14 16 mph 1018.4mb 59f
10:00 10 13 mph 1018.4mb 58f
9:00 11 15 mph 1018.6mb 57f
8:00 8 9 mph 1018.8mb 56f
7:00 11
mph
1018.6mb 55f
6:00 11 13 mph 1018.3mb 56f
5:00 11 13 mph 1018.4mb 55f
4:00 11 13 mph 1018.5mb 56f
3:00 13
mph
1018.7mb 58f